createdAt,value
2017-06-30T00:01:42.777Z,95553.53
2017-06-30T00:04:08.612Z,95558.22
2017-06-30T00:06:34.663Z,95553.96
2017-06-30T00:09:00.573Z,95565.81
2017-06-30T00:11:26.437Z,95492.47
2017-06-30T00:13:52.350Z,95577.41
2017-06-30T00:16:18.326Z,95574.20
2017-06-30T00:18:44.153Z,95569.44
2017-06-30T00:21:09.973Z,95571.50
2017-06-30T00:23:35.969Z,95574.88
2017-06-30T00:26:01.807Z,95582.38
2017-06-30T00:28:27.625Z,95581.61
2017-06-30T00:30:53.473Z,95574.94
2017-06-30T00:33:19.494Z,95575.77
2017-06-30T00:35:45.442Z,95575.42
2017-06-30T00:38:11.243Z,95575.21
2017-06-30T00:40:37.099Z,95571.42
2017-06-30T00:43:02.986Z,95569.15
2017-06-30T00:45:28.885Z,95575.42
2017-06-30T00:47:54.731Z,95576.73
2017-06-30T00:50:20.542Z,95574.59
2017-06-30T00:52:46.399Z,95559.11
2017-06-30T00:55:12.253Z,95575.90
2017-06-30T00:57:38.184Z,95577.20
2017-06-30T01:00:05.093Z,95577.16
2017-06-30T01:02:30.964Z,95574.80
2017-06-30T01:04:56.856Z,95575.58
2017-06-30T01:07:22.700Z,95582.25
2017-06-30T01:09:48.576Z,95542.34
2017-06-30T01:12:14.429Z,95588.63
2017-06-30T01:14:40.952Z,95588.03
2017-06-30T01:17:06.801Z,95595.03
2017-06-30T01:19:32.615Z,95594.14
2017-06-30T01:21:58.439Z,95592.16
2017-06-30T01:24:24.314Z,95590.64
2017-06-30T01:26:50.137Z,95593.88
2017-06-30T01:29:15.985Z,95591.32
2017-06-30T01:31:42.025Z,95584.70
2017-06-30T01:34:07.919Z,95585.05
2017-06-30T01:36:33.760Z,95585.97
2017-06-30T01:38:59.611Z,95514.89
2017-06-30T01:41:25.467Z,95579.34
2017-06-30T01:43:51.445Z,95571.59
2017-06-30T01:46:17.305Z,95583.36
2017-06-30T01:48:43.144Z,95580.66
2017-06-30T01:51:09.074Z,95582.30
2017-06-30T01:53:34.922Z,95580.79
2017-06-30T01:56:00.792Z,95583.98
2017-06-30T01:58:26.801Z,95587.67
2017-06-30T02:00:52.632Z,95584.92
2017-06-30T02:03:18.591Z,95595.44
2017-06-30T02:05:44.459Z,95595.04
2017-06-30T02:08:10.341Z,95602.87
2017-06-30T02:10:36.218Z,95592.00
2017-06-30T02:13:02.030Z,95592.69
2017-06-30T02:15:27.976Z,95596.00
2017-06-30T02:17:53.871Z,95599.25
2017-06-30T02:20:19.707Z,95600.61
2017-06-30T02:22:45.544Z,95605.55
2017-06-30T02:25:11.457Z,95604.59
2017-06-30T02:27:37.464Z,95611.34
2017-06-30T02:30:03.425Z,95610.95
2017-06-30T02:32:29.243Z,95610.23
2017-06-30T02:34:55.071Z,95611.83
2017-06-30T02:37:20.952Z,95605.03
2017-06-30T02:39:46.867Z,95611.20
2017-06-30T02:42:12.728Z,95614.10
2017-06-30T02:44:38.580Z,95627.39
2017-06-30T02:47:04.410Z,95592.14
2017-06-30T02:49:30.228Z,95631.64
2017-06-30T02:51:56.185Z,95618.86
2017-06-30T02:54:22.059Z,95637.44
2017-06-30T02:56:48.066Z,95641.03
2017-06-30T02:59:13.947Z,95636.26
2017-06-30T03:01:39.839Z,95651.27
2017-06-30T03:04:05.662Z,95648.70
2017-06-30T03:06:31.596Z,95655.34
2017-06-30T03:08:57.541Z,95649.81
2017-06-30T03:11:23.663Z,95645.77
2017-06-30T03:13:49.587Z,95650.84
2017-06-30T03:16:15.417Z,95657.00
2017-06-30T03:18:41.267Z,95660.55
2017-06-30T03:21:07.086Z,95657.17
2017-06-30T03:23:32.916Z,95662.28
2017-06-30T03:25:58.842Z,95661.39
2017-06-30T03:28:25.713Z,95659.66
2017-06-30T03:30:51.520Z,95642.86
2017-06-30T03:33:17.328Z,95642.19
2017-06-30T03:35:43.179Z,95664.47
2017-06-30T03:38:08.972Z,95661.39
2017-06-30T03:40:34.909Z,95666.91
2017-06-30T03:43:00.799Z,95668.69
2017-06-30T03:45:26.614Z,95677.30
2017-06-30T03:47:52.446Z,95681.14
2017-06-30T03:50:18.275Z,95678.81
2017-06-30T03:52:44.102Z,95682.65
2017-06-30T03:55:09.897Z,95679.63
2017-06-30T03:57:35.811Z,95660.36
2017-06-30T04:00:01.754Z,95683.50
2017-06-30T04:02:27.625Z,95682.73
2017-06-30T04:04:53.429Z,95684.26
2017-06-30T04:07:19.272Z,95683.08
2017-06-30T04:09:45.089Z,95681.91
2017-06-30T04:12:10.893Z,95690.09
2017-06-30T04:14:36.839Z,95683.77
2017-06-30T04:17:02.677Z,95639.64
2017-06-30T04:19:29.290Z,95645.61
2017-06-30T04:21:55.125Z,95658.22
2017-06-30T04:24:20.933Z,95673.91
2017-06-30T04:26:46.796Z,95678.82
2017-06-30T04:29:12.609Z,95673.03
2017-06-30T04:31:38.489Z,95691.77
2017-06-30T04:34:04.295Z,95692.33
2017-06-30T04:36:30.113Z,95696.08
2017-06-30T04:38:55.903Z,95695.95
2017-06-30T04:41:21.754Z,95698.23
2017-06-30T04:43:47.597Z,95683.70
2017-06-30T04:46:13.579Z,95698.27
2017-06-30T04:48:39.382Z,95692.22
2017-06-30T04:51:05.222Z,95697.14
2017-06-30T04:53:31.061Z,95698.34
2017-06-30T04:55:56.918Z,95704.09
2017-06-30T04:58:22.888Z,95699.52
2017-06-30T05:00:48.923Z,95690.25
2017-06-30T05:03:14.761Z,95706.19
2017-06-30T05:05:40.576Z,95711.31
2017-06-30T05:08:06.533Z,95698.99
2017-06-30T05:10:32.402Z,95709.31
2017-06-30T05:12:59.981Z,95712.30
2017-06-30T05:15:25.793Z,95689.30
2017-06-30T05:17:51.625Z,95713.16
2017-06-30T05:20:17.493Z,95721.27
2017-06-30T05:22:43.340Z,95723.30
2017-06-30T05:25:09.140Z,95724.95
2017-06-30T05:27:34.943Z,95739.04
2017-06-30T05:30:00.770Z,95713.72
2017-06-30T05:32:26.585Z,95723.89
2017-06-30T05:34:52.409Z,95716.95
2017-06-30T05:37:18.267Z,95720.67
2017-06-30T05:39:44.810Z,95723.44
2017-06-30T05:42:11.237Z,95725.36
2017-06-30T05:44:38.693Z,95725.39
2017-06-30T05:47:05.155Z,95728.39
2017-06-30T05:49:30.993Z,95730.86
2017-06-30T05:51:56.867Z,95726.70
2017-06-30T05:54:22.675Z,95727.69
2017-06-30T05:56:48.533Z,95726.23
2017-06-30T05:59:14.498Z,95730.09
2017-06-30T06:01:40.320Z,95735.02
2017-06-30T06:04:06.196Z,95734.30
2017-06-30T06:06:32.064Z,95733.32
2017-06-30T06:08:57.891Z,95740.47
2017-06-30T06:11:23.742Z,95731.81
2017-06-30T06:13:49.653Z,95740.28
2017-06-30T06:16:15.654Z,95732.83
2017-06-30T06:18:41.571Z,95740.63
2017-06-30T06:21:07.440Z,95749.65
2017-06-30T06:23:33.235Z,95734.27
2017-06-30T06:25:59.052Z,95747.67
2017-06-30T06:28:24.886Z,95755.28
2017-06-30T06:30:50.706Z,95764.25
2017-06-30T06:33:16.686Z,95742.84
2017-06-30T06:35:42.534Z,95757.31
2017-06-30T06:38:08.377Z,95761.49
2017-06-30T06:40:34.208Z,95777.57
2017-06-30T06:43:00.034Z,95765.32
2017-06-30T06:45:25.878Z,95775.99
2017-06-30T06:47:51.699Z,95772.19
2017-06-30T06:50:18.969Z,95777.74
2017-06-30T06:52:44.935Z,95779.59
2017-06-30T06:55:10.780Z,95768.53
2017-06-30T06:57:36.794Z,95781.41
2017-06-30T07:00:02.646Z,95763.22
2017-06-30T07:02:28.554Z,95774.16
2017-06-30T07:04:54.348Z,95733.35
2017-06-30T07:07:20.227Z,95759.20
2017-06-30T07:09:46.058Z,95757.64
2017-06-30T07:12:11.860Z,95762.94
2017-06-30T07:14:37.734Z,95738.28
2017-06-30T07:17:03.748Z,95765.25
2017-06-30T07:19:29.585Z,95762.75
2017-06-30T07:21:56.339Z,95769.34
2017-06-30T07:24:29.113Z,95775.88
2017-06-30T07:26:55.049Z,95732.09
2017-06-30T07:29:20.962Z,95768.28
2017-06-30T07:31:46.771Z,95763.20
2017-06-30T07:34:13.237Z,95773.20
2017-06-30T07:36:39.758Z,95762.17
2017-06-30T07:39:05.687Z,95763.83
2017-06-30T07:41:31.495Z,95756.69
2017-06-30T07:43:58.972Z,95763.50
2017-06-30T07:46:24.848Z,95730.84
2017-06-30T07:48:50.693Z,95767.70
2017-06-30T07:51:16.561Z,95776.79
2017-06-30T07:53:42.378Z,95759.47
2017-06-30T07:56:08.249Z,95759.71
2017-06-30T07:58:34.178Z,95761.34
2017-06-30T08:01:00.001Z,95767.62
2017-06-30T08:03:25.943Z,95761.30
2017-06-30T08:05:52.593Z,95783.16
2017-06-30T08:08:19.928Z,95758.38
2017-06-30T08:10:45.809Z,95757.74
2017-06-30T08:13:11.703Z,95760.95
2017-06-30T08:15:37.560Z,95771.19
2017-06-30T08:18:03.572Z,95775.79
2017-06-30T08:20:29.574Z,95770.43
2017-06-30T08:22:55.412Z,95764.73
2017-06-30T08:25:21.746Z,95742.09
2017-06-30T08:27:47.974Z,95768.54
2017-06-30T08:30:14.245Z,95748.19
2017-06-30T08:32:40.145Z,95757.00
2017-06-30T08:35:06.080Z,95771.53
2017-06-30T08:37:31.887Z,95779.45
2017-06-30T08:39:57.698Z,95772.13
2017-06-30T08:42:24.045Z,95774.42
2017-06-30T08:44:49.941Z,95769.77
2017-06-30T08:47:15.857Z,95765.30
2017-06-30T08:49:41.685Z,95766.70
2017-06-30T08:52:07.700Z,95773.71
2017-06-30T08:54:33.518Z,95772.48
2017-06-30T08:56:59.349Z,95774.66
2017-06-30T08:59:25.305Z,95775.34
2017-06-30T09:01:51.202Z,95767.37
2017-06-30T09:04:17.234Z,95774.17
2017-06-30T09:06:43.204Z,95777.05
2017-06-30T09:09:09.057Z,95772.53
2017-06-30T09:11:34.929Z,95768.81
2017-06-30T09:14:00.865Z,95764.39
2017-06-30T09:16:26.719Z,95768.80
2017-06-30T09:18:52.529Z,95771.17
2017-06-30T09:21:18.408Z,95777.44
2017-06-30T09:23:44.287Z,95785.70
2017-06-30T09:26:10.122Z,95775.30
2017-06-30T09:28:35.936Z,95782.12
2017-06-30T09:31:01.953Z,95782.23
2017-06-30T09:33:27.812Z,95781.94
2017-06-30T09:35:53.656Z,95782.11
2017-06-30T09:38:19.509Z,95778.02
2017-06-30T09:40:45.477Z,95774.89
2017-06-30T09:43:11.310Z,95782.68
2017-06-30T09:45:37.109Z,95772.09
2017-06-30T09:48:02.969Z,95772.75
2017-06-30T09:50:28.884Z,95768.33
2017-06-30T09:52:54.702Z,95784.13
2017-06-30T09:55:20.543Z,95766.91
2017-06-30T09:57:46.456Z,95778.50
2017-06-30T10:00:12.506Z,95778.09
2017-06-30T10:02:38.476Z,95777.05
2017-06-30T10:05:04.296Z,95774.69
2017-06-30T10:07:30.343Z,95775.62
2017-06-30T10:09:56.173Z,95771.13
2017-06-30T10:12:22.036Z,95770.32
2017-06-30T10:14:47.929Z,95775.52
2017-06-30T10:17:13.743Z,95773.53
2017-06-30T10:19:39.612Z,95775.20
2017-06-30T10:22:06.279Z,95768.96
2017-06-30T10:24:32.208Z,95766.00
2017-06-30T10:26:58.094Z,95765.77
2017-06-30T10:29:23.967Z,95778.30
2017-06-30T10:31:49.921Z,95770.91
2017-06-30T10:34:15.773Z,95772.30
2017-06-30T10:36:41.710Z,95777.73
2017-06-30T10:39:07.515Z,95772.44
2017-06-30T10:41:33.408Z,95780.16
2017-06-30T10:43:59.292Z,95770.13
2017-06-30T10:46:25.124Z,95767.70
2017-06-30T10:48:50.917Z,95725.95
2017-06-30T10:51:16.872Z,95768.73
2017-06-30T10:53:42.697Z,95771.56
2017-06-30T10:56:08.545Z,95767.53
2017-06-30T10:58:34.648Z,95754.84
2017-06-30T11:01:00.485Z,95763.46
2017-06-30T11:03:26.309Z,95760.45
2017-06-30T11:05:53.248Z,95759.72
2017-06-30T11:08:19.059Z,95761.70
2017-06-30T11:10:44.981Z,95756.68
2017-06-30T11:13:10.934Z,95766.62
2017-06-30T11:15:36.841Z,95765.85
2017-06-30T11:18:02.711Z,95734.88
2017-06-30T11:20:28.526Z,95756.22
2017-06-30T11:22:54.354Z,95759.72
2017-06-30T11:25:20.224Z,95754.52
2017-06-30T11:27:46.049Z,95749.10
2017-06-30T11:30:11.865Z,95755.87
2017-06-30T11:32:37.885Z,95742.13
2017-06-30T11:35:03.897Z,95748.25
2017-06-30T11:37:29.898Z,95746.09
2017-06-30T11:39:55.850Z,95741.56
2017-06-30T11:42:21.696Z,95748.98
2017-06-30T11:44:47.515Z,95748.38
2017-06-30T11:47:13.411Z,95752.39
2017-06-30T11:49:39.422Z,95754.69
2017-06-30T11:52:05.317Z,95750.20
2017-06-30T11:54:31.252Z,95743.95
2017-06-30T11:56:57.097Z,95745.52
2017-06-30T11:59:23.113Z,95747.11
2017-06-30T12:01:49.031Z,95749.08
2017-06-30T12:04:14.876Z,95755.08
2017-06-30T12:06:40.817Z,95752.67
2017-06-30T12:09:06.682Z,95751.84
2017-06-30T12:11:32.647Z,95738.83
2017-06-30T12:13:58.540Z,95740.86
2017-06-30T12:16:24.368Z,95739.53
2017-06-30T12:18:50.284Z,95734.09
2017-06-30T12:21:16.181Z,95731.70
2017-06-30T12:23:42.029Z,95738.93
2017-06-30T12:26:07.942Z,95741.40
2017-06-30T12:28:33.852Z,95715.40
2017-06-30T12:30:59.680Z,95737.94
2017-06-30T12:33:25.510Z,95735.08
2017-06-30T12:35:51.339Z,95721.34
2017-06-30T12:38:17.202Z,95723.13
2017-06-30T12:40:43.010Z,95728.08
2017-06-30T12:43:08.853Z,95726.86
2017-06-30T12:45:34.756Z,95722.05
2017-06-30T12:48:00.670Z,95722.81
2017-06-30T12:50:26.496Z,95716.72
2017-06-30T12:52:52.351Z,95714.34
2017-06-30T12:55:18.309Z,95719.25
2017-06-30T12:57:44.118Z,95721.25
2017-06-30T13:00:09.929Z,95718.58
2017-06-30T13:02:35.817Z,95721.91
2017-06-30T13:05:01.620Z,95701.38
2017-06-30T13:07:27.440Z,95707.72
2017-06-30T13:09:53.465Z,95694.61
2017-06-30T13:12:19.283Z,95709.47
2017-06-30T13:14:45.312Z,95693.40
2017-06-30T13:17:11.169Z,95702.17
2017-06-30T13:19:40.205Z,95701.28
2017-06-30T13:22:06.058Z,95695.13
2017-06-30T13:24:31.981Z,95700.95
2017-06-30T13:26:57.848Z,95697.62
2017-06-30T13:29:23.671Z,95692.09
2017-06-30T13:31:49.512Z,95702.09
2017-06-30T13:34:15.376Z,95701.70
2017-06-30T13:36:41.315Z,95690.77
2017-06-30T13:39:07.174Z,95684.08
2017-06-30T13:41:33.279Z,95687.72
2017-06-30T13:43:59.097Z,95690.10
2017-06-30T13:46:25.000Z,95684.88
2017-06-30T13:48:50.881Z,95688.75
2017-06-30T13:51:16.751Z,95678.33
2017-06-30T13:53:42.664Z,95694.52
2017-06-30T13:56:08.498Z,95689.97
2017-06-30T13:58:34.401Z,95689.45
2017-06-30T14:01:00.289Z,95693.83
2017-06-30T14:03:26.218Z,95689.49
2017-06-30T14:05:52.121Z,95682.62
2017-06-30T14:08:17.959Z,95691.94
2017-06-30T14:10:43.800Z,95660.09
2017-06-30T14:13:09.648Z,95678.14
2017-06-30T14:15:35.642Z,95681.37
2017-06-30T14:18:01.451Z,95681.16
2017-06-30T14:20:27.321Z,95684.41
2017-06-30T14:22:53.147Z,95676.56
2017-06-30T14:25:18.974Z,95673.86
2017-06-30T14:27:44.825Z,95668.20
2017-06-30T14:30:10.647Z,95670.27
2017-06-30T14:32:36.657Z,95666.92
2017-06-30T14:35:02.553Z,95668.59
2017-06-30T14:37:28.393Z,95659.28
2017-06-30T14:39:54.264Z,95657.89
2017-06-30T14:42:20.089Z,95670.02
2017-06-30T14:44:45.922Z,95674.17
2017-06-30T14:47:11.775Z,95666.44
2017-06-30T14:49:37.591Z,95659.42
2017-06-30T14:52:03.471Z,95658.22
2017-06-30T14:54:29.324Z,95659.22
2017-06-30T14:56:55.140Z,95656.42
2017-06-30T14:59:21.048Z,95656.69
2017-06-30T15:01:46.885Z,95655.89
2017-06-30T15:04:12.857Z,95653.80
2017-06-30T15:06:38.692Z,95649.42
2017-06-30T15:09:04.492Z,95640.95
2017-06-30T15:11:30.334Z,95641.66
2017-06-30T15:13:56.194Z,95644.91
2017-06-30T15:16:22.218Z,95664.50
2017-06-30T15:18:48.113Z,95652.20
2017-06-30T15:21:13.960Z,95659.57
2017-06-30T15:23:39.799Z,95647.81
2017-06-30T15:26:05.649Z,95657.33
2017-06-30T15:28:31.469Z,95643.62
2017-06-30T15:30:57.296Z,95637.52
2017-06-30T15:33:23.138Z,95635.81
2017-06-30T15:35:48.953Z,95646.00
2017-06-30T15:38:14.867Z,95648.20
2017-06-30T15:40:40.730Z,95637.02
2017-06-30T15:43:06.594Z,95634.98
2017-06-30T15:45:32.383Z,95643.38
2017-06-30T15:47:58.269Z,95632.77
2017-06-30T15:50:24.169Z,95635.56
2017-06-30T15:52:49.992Z,95600.27
2017-06-30T15:55:15.869Z,95637.04
2017-06-30T15:57:41.710Z,95638.75
2017-06-30T16:00:07.548Z,95644.08
2017-06-30T16:02:33.484Z,95641.78
2017-06-30T16:04:59.352Z,95631.57
2017-06-30T16:07:25.298Z,95640.48
2017-06-30T16:09:51.175Z,95635.90
2017-06-30T16:12:17.049Z,95640.70
2017-06-30T16:14:42.965Z,95640.87
2017-06-30T16:17:08.801Z,95640.98
2017-06-30T16:19:34.641Z,95643.17
2017-06-30T16:22:00.483Z,95645.66
2017-06-30T16:24:26.319Z,95646.17
2017-06-30T16:26:52.387Z,95655.61
2017-06-30T16:29:18.299Z,95659.45
2017-06-30T16:31:44.235Z,95648.18
2017-06-30T16:34:10.146Z,95663.86
2017-06-30T16:36:36.001Z,95663.27
2017-06-30T16:39:01.897Z,95661.94
2017-06-30T16:41:27.844Z,95664.04
2017-06-30T16:43:53.689Z,95670.31
2017-06-30T16:46:19.637Z,95674.03
2017-06-30T16:48:45.436Z,95679.59
2017-06-30T16:51:18.188Z,95673.98
2017-06-30T16:53:44.056Z,95678.45
2017-06-30T16:56:09.969Z,95680.36
2017-06-30T16:58:35.925Z,95686.60
2017-06-30T17:01:01.744Z,95687.88
2017-06-30T17:03:27.557Z,95689.39
2017-06-30T17:05:53.514Z,95692.14
2017-06-30T17:08:19.490Z,95698.00
2017-06-30T17:10:45.356Z,95699.91
2017-06-30T17:13:11.246Z,95693.05
2017-06-30T17:15:37.083Z,95699.50
2017-06-30T17:18:02.983Z,95698.47
2017-06-30T17:20:28.871Z,95710.33
2017-06-30T17:22:54.707Z,95721.20
2017-06-30T17:25:20.581Z,95729.33
2017-06-30T17:27:46.429Z,95737.31
2017-06-30T17:30:12.350Z,95746.08
2017-06-30T17:32:38.331Z,95751.84
2017-06-30T17:35:04.144Z,95800.23
2017-06-30T17:37:30.017Z,95785.07
2017-06-30T17:39:55.951Z,95759.86
2017-06-30T17:42:21.947Z,95773.72
2017-06-30T17:44:47.875Z,95735.73
2017-06-30T17:47:13.804Z,95734.91
2017-06-30T17:49:39.683Z,95720.72
2017-06-30T17:52:05.539Z,95719.39
2017-06-30T17:54:31.433Z,95730.83
2017-06-30T17:56:57.294Z,95732.92
2017-06-30T17:59:23.281Z,95736.33
2017-06-30T18:01:49.141Z,95738.72
2017-06-30T18:04:14.960Z,95740.05
2017-06-30T18:06:40.846Z,95736.66
2017-06-30T18:09:06.708Z,95741.14
2017-06-30T18:11:32.596Z,95746.29
2017-06-30T18:13:58.512Z,95737.72
2017-06-30T18:16:24.475Z,95740.59
2017-06-30T18:18:50.373Z,95750.05
2017-06-30T18:21:16.250Z,95750.86
2017-06-30T18:23:42.127Z,95750.44
2017-06-30T18:26:07.968Z,95756.08
2017-06-30T18:28:33.828Z,95754.80
2017-06-30T18:30:59.692Z,95766.16
2017-06-30T18:33:25.493Z,95756.47
2017-06-30T18:35:51.313Z,95758.56
2017-06-30T18:38:17.240Z,95762.93
2017-06-30T18:40:43.043Z,95768.15
2017-06-30T18:43:08.917Z,95768.73
2017-06-30T18:45:34.761Z,95761.64
2017-06-30T18:48:00.661Z,95758.12
2017-06-30T18:50:26.544Z,95764.02
2017-06-30T18:52:52.580Z,95761.25
2017-06-30T18:55:18.427Z,95774.88
2017-06-30T18:57:44.373Z,95776.96
2017-06-30T19:00:10.288Z,95776.36
2017-06-30T19:02:36.219Z,95751.56
2017-06-30T19:05:02.021Z,95780.44
2017-06-30T19:07:27.866Z,95788.12
2017-06-30T19:09:53.858Z,95793.97
2017-06-30T19:12:19.724Z,95791.47
2017-06-30T19:14:45.654Z,95799.54
2017-06-30T19:17:11.470Z,95800.95
2017-06-30T19:19:37.380Z,95801.23
2017-06-30T19:22:03.378Z,95806.66
2017-06-30T19:24:29.358Z,95803.65
2017-06-30T19:26:55.206Z,95817.08
2017-06-30T19:29:21.046Z,95823.70
2017-06-30T19:31:47.088Z,95819.75
2017-06-30T19:34:13.120Z,95825.17
2017-06-30T19:36:38.929Z,95831.69
2017-06-30T19:39:04.829Z,95825.20
2017-06-30T19:41:30.647Z,95836.62
2017-06-30T19:43:56.488Z,95832.59
2017-06-30T19:46:22.369Z,95841.09
2017-06-30T19:48:48.396Z,95842.73
2017-06-30T19:51:14.208Z,95844.44
2017-06-30T19:53:40.286Z,95845.23
2017-06-30T19:56:06.181Z,95853.25
2017-06-30T19:58:31.997Z,95844.74
2017-06-30T20:00:58.390Z,95864.80
2017-06-30T20:03:24.251Z,95878.23
2017-06-30T20:05:50.179Z,95884.80
2017-06-30T20:08:16.059Z,95886.55
2017-06-30T20:10:41.924Z,95895.64
2017-06-30T20:13:07.869Z,95898.20
2017-06-30T20:15:33.715Z,95899.95
2017-06-30T20:17:59.723Z,95894.78
2017-06-30T20:20:25.604Z,95895.57
2017-06-30T20:22:51.611Z,95904.09
2017-06-30T20:25:17.492Z,95843.24
2017-06-30T20:27:43.393Z,95891.23
2017-06-30T20:30:09.493Z,95892.78
2017-06-30T20:32:35.423Z,95897.02
2017-06-30T20:35:01.455Z,95894.76
2017-06-30T20:37:27.462Z,95904.04
2017-06-30T20:39:53.409Z,95907.81
2017-06-30T20:42:19.307Z,95910.88
2017-06-30T20:44:45.335Z,95915.98
2017-06-30T20:47:11.416Z,95912.50
2017-06-30T20:49:37.366Z,95917.46
2017-06-30T20:52:03.388Z,95919.87
2017-06-30T20:54:29.348Z,95918.52
2017-06-30T20:56:55.285Z,95917.28
2017-06-30T20:59:21.237Z,95916.78
2017-06-30T21:01:47.144Z,95921.34
2017-06-30T21:04:13.097Z,95908.64
2017-06-30T21:06:39.143Z,95921.66
2017-06-30T21:09:05.160Z,95920.36
2017-06-30T21:11:31.068Z,95918.41
2017-06-30T21:13:57.041Z,95924.36
2017-06-30T21:16:22.910Z,95905.17
2017-06-30T21:18:48.835Z,95906.59
2017-06-30T21:21:14.797Z,95927.74
2017-06-30T21:23:40.782Z,95926.16
2017-06-30T21:26:06.632Z,95926.52
2017-06-30T21:28:32.531Z,95927.80
2017-06-30T21:30:58.538Z,95928.64
2017-06-30T21:33:24.520Z,95927.44
2017-06-30T21:35:50.373Z,95922.08
2017-06-30T21:38:16.431Z,95927.75
2017-06-30T21:40:42.317Z,95925.68
2017-06-30T21:43:08.229Z,95900.20
2017-06-30T21:45:34.099Z,95903.91
2017-06-30T21:47:59.988Z,95930.51
2017-06-30T21:50:25.908Z,95919.43
2017-06-30T21:52:51.867Z,95938.72
2017-06-30T21:55:17.722Z,95939.43
2017-06-30T21:57:43.758Z,95938.88
2017-06-30T22:00:09.761Z,95939.56
2017-06-30T22:02:35.615Z,95943.34
2017-06-30T22:05:01.530Z,95945.16
2017-06-30T22:07:27.484Z,95925.07
2017-06-30T22:09:53.451Z,95936.79
2017-06-30T22:12:19.390Z,95928.59
2017-06-30T22:14:45.273Z,95952.81
2017-06-30T22:17:11.181Z,95940.13
2017-06-30T22:19:37.064Z,95935.48
2017-06-30T22:22:02.932Z,95937.89
2017-06-30T22:24:28.826Z,95944.53
2017-06-30T22:26:54.814Z,95944.73
2017-06-30T22:29:20.760Z,95946.52
2017-06-30T22:31:46.616Z,95948.12
2017-06-30T22:34:12.468Z,95953.70
2017-06-30T22:36:38.438Z,95948.19
2017-06-30T22:39:04.293Z,95961.64
2017-06-30T22:41:30.119Z,95965.78
2017-06-30T22:43:56.104Z,95967.98
2017-06-30T22:46:21.984Z,95965.41
2017-06-30T22:48:47.931Z,95961.55
2017-06-30T22:51:13.789Z,95962.68
2017-06-30T22:53:39.664Z,95961.50
2017-06-30T22:56:05.580Z,95968.41
2017-06-30T22:58:31.406Z,95966.76
2017-06-30T23:00:57.327Z,95956.95
2017-06-30T23:03:23.224Z,95965.37
2017-06-30T23:05:49.140Z,95959.28
2017-06-30T23:08:15.188Z,95964.11
2017-06-30T23:10:41.037Z,95967.69
2017-06-30T23:13:06.920Z,95970.58
2017-06-30T23:15:32.812Z,95960.36
2017-06-30T23:17:58.840Z,95961.88
2017-06-30T23:20:24.779Z,95968.11
2017-06-30T23:22:50.635Z,95959.25
2017-06-30T23:25:16.529Z,95965.80
2017-06-30T23:27:42.448Z,95961.46
2017-06-30T23:30:08.303Z,95956.38
2017-06-30T23:32:34.262Z,95953.73
2017-06-30T23:35:00.131Z,95919.12
2017-06-30T23:37:25.978Z,95945.34
2017-06-30T23:39:52.104Z,95955.70
2017-06-30T23:42:18.008Z,95942.09
2017-06-30T23:44:44.827Z,95960.86
2017-06-30T23:47:10.715Z,95964.11
2017-06-30T23:49:36.687Z,95959.22
2017-06-30T23:52:02.587Z,95961.02
2017-06-30T23:54:28.475Z,95965.84
2017-06-30T23:56:54.322Z,95950.95
2017-06-30T23:59:20.239Z,95969.56
